createdAt,value
2023-05-03T00:00:02.987Z,10
2023-05-03T00:01:02.304Z,9
2023-05-03T00:02:03.643Z,9
2023-05-03T00:03:03.763Z,9
2023-05-03T00:04:03.356Z,9
2023-05-03T00:05:04.779Z,10
2023-05-03T00:06:03.809Z,9
2023-05-03T00:07:03.014Z,9
2023-05-03T00:08:02.902Z,9
2023-05-03T00:09:02.572Z,9
2023-05-03T00:10:03.219Z,9
2023-05-03T00:11:02.548Z,9
2023-05-03T00:12:03.131Z,9
2023-05-03T00:13:03.329Z,9
2023-05-03T00:14:03.465Z,9
2023-05-03T00:15:03.192Z,9
2023-05-03T00:16:03.024Z,9
2023-05-03T00:17:03.080Z,9
2023-05-03T00:18:03.081Z,9
2023-05-03T00:19:02.636Z,9
2023-05-03T00:20:02.667Z,9
2023-05-03T00:21:03.101Z,9
2023-05-03T00:22:03.263Z,9
2023-05-03T00:23:02.938Z,9
2023-05-03T00:24:02.983Z,9
2023-05-03T00:25:02.578Z,9
2023-05-03T00:26:02.574Z,9
2023-05-03T00:27:03.305Z,9
2023-05-03T00:28:03.245Z,9
2023-05-03T00:29:03.278Z,9
2023-05-03T00:30:03.522Z,9
2023-05-03T00:31:03.143Z,9
2023-05-03T00:32:02.985Z,9
2023-05-03T00:33:02.956Z,9
2023-05-03T00:34:02.851Z,9
2023-05-03T00:35:03.128Z,9
2023-05-03T00:36:02.938Z,9
2023-05-03T00:37:02.937Z,9
2023-05-03T00:38:02.869Z,9
2023-05-03T00:39:03.194Z,9
2023-05-03T00:40:03.510Z,9
2023-05-03T00:41:03.258Z,9
2023-05-03T00:42:03.065Z,9
2023-05-03T00:43:03.195Z,9
2023-05-03T00:44:02.991Z,9
2023-05-03T00:45:02.790Z,9
2023-05-03T00:46:15.238Z,9
2023-05-03T00:47:03.047Z,9
2023-05-03T00:48:03.607Z,9
2023-05-03T00:49:03.132Z,9
2023-05-03T00:50:03.320Z,9
2023-05-03T00:51:02.984Z,9
2023-05-03T00:52:02.883Z,9
2023-05-03T00:53:02.706Z,9
2023-05-03T00:54:02.719Z,9
2023-05-03T00:55:02.601Z,9
2023-05-03T00:56:02.666Z,9
2023-05-03T00:57:03.232Z,9
2023-05-03T00:58:03.657Z,9
2023-05-03T00:59:03.163Z,9
2023-05-03T01:00:03.774Z,9
2023-05-03T01:01:03.482Z,9
2023-05-03T01:02:02.365Z,9
2023-05-03T01:03:02.807Z,9
2023-05-03T01:04:02.337Z,9
2023-05-03T01:05:02.431Z,9
2023-05-03T01:06:02.418Z,9
2023-05-03T01:07:02.159Z,9
2023-05-03T01:08:02.201Z,9
2023-05-03T01:09:02.695Z,9
2023-05-03T01:10:02.624Z,9
2023-05-03T01:11:02.551Z,9
2023-05-03T01:12:02.399Z,9
2023-05-03T01:13:02.294Z,9
2023-05-03T01:14:02.914Z,9
2023-05-03T01:15:02.565Z,9
2023-05-03T01:16:02.967Z,8
2023-05-03T01:17:02.417Z,9
2023-05-03T01:18:02.480Z,9
2023-05-03T01:19:02.424Z,9
2023-05-03T01:20:02.460Z,9
2023-05-03T01:21:02.251Z,9
2023-05-03T01:22:02.813Z,9
2023-05-03T01:23:02.828Z,8
2023-05-03T01:24:03.129Z,9
2023-05-03T01:25:02.837Z,9
2023-05-03T01:26:03.153Z,9
2023-05-03T01:27:02.728Z,9
2023-05-03T01:28:02.240Z,9
2023-05-03T01:29:02.105Z,9
2023-05-03T01:30:02.489Z,9
2023-05-03T01:31:02.158Z,9
2023-05-03T01:32:02.791Z,9
2023-05-03T01:33:02.640Z,9
2023-05-03T01:34:02.675Z,9
2023-05-03T01:35:02.601Z,8
2023-05-03T01:36:02.876Z,9
2023-05-03T01:37:02.612Z,9
2023-05-03T01:38:03.025Z,9
2023-05-03T01:39:02.604Z,9
2023-05-03T01:40:02.706Z,8
2023-05-03T01:41:03.033Z,9
2023-05-03T01:42:02.234Z,9
2023-05-03T01:43:02.750Z,8
2023-05-03T01:44:02.404Z,8
2023-05-03T01:45:02.752Z,8
2023-05-03T01:46:02.389Z,8
2023-05-03T01:47:02.933Z,8
2023-05-03T01:48:02.822Z,8
2023-05-03T01:49:02.797Z,8
2023-05-03T01:50:03.044Z,8
2023-05-03T01:51:03.110Z,8
2023-05-03T01:52:02.528Z,8
2023-05-03T01:53:02.361Z,8
2023-05-03T01:54:02.175Z,8
2023-05-03T01:55:02.112Z,8
2023-05-03T01:56:02.349Z,8
2023-05-03T01:57:02.734Z,8
2023-05-03T01:58:02.581Z,8
2023-05-03T01:59:02.659Z,8
2023-05-03T02:00:02.757Z,8
2023-05-03T02:01:02.311Z,8
2023-05-03T02:02:02.713Z,8
2023-05-03T02:03:02.717Z,8
2023-05-03T02:04:03.056Z,8
2023-05-03T02:05:02.965Z,8
2023-05-03T02:06:02.638Z,8
2023-05-03T02:07:03.226Z,8
2023-05-03T02:08:02.956Z,8
2023-05-03T02:09:02.991Z,8
2023-05-03T02:10:02.923Z,8
2023-05-03T02:11:03.157Z,8
2023-05-03T02:12:02.629Z,8
2023-05-03T02:13:02.692Z,8
2023-05-03T02:14:02.198Z,8
2023-05-03T02:15:02.740Z,8
2023-05-03T02:16:02.102Z,8
2023-05-03T02:17:02.237Z,8
2023-05-03T02:18:02.773Z,8
2023-05-03T02:19:02.568Z,8
2023-05-03T02:20:02.697Z,8
2023-05-03T02:21:02.347Z,8
2023-05-03T02:22:02.955Z,8
2023-05-03T02:23:02.864Z,8
2023-05-03T02:24:02.467Z,8
2023-05-03T02:25:02.769Z,8
2023-05-03T02:26:02.717Z,8
2023-05-03T02:27:02.304Z,8
2023-05-03T02:28:02.056Z,8
2023-05-03T02:29:01.926Z,8
2023-05-03T02:30:02.118Z,8
2023-05-03T02:31:01.875Z,8
2023-05-03T02:32:02.291Z,8
2023-05-03T02:33:02.035Z,8
2023-05-03T02:34:01.930Z,8
2023-05-03T02:35:01.746Z,8
2023-05-03T02:36:02.269Z,8
2023-05-03T02:37:02.223Z,8
2023-05-03T02:38:02.396Z,8
2023-05-03T02:39:02.352Z,8
2023-05-03T02:40:02.686Z,8
2023-05-03T02:41:02.201Z,8
2023-05-03T02:42:02.404Z,8
2023-05-03T02:43:02.778Z,8
2023-05-03T02:44:02.716Z,8
2023-05-03T02:45:02.275Z,8
2023-05-03T02:46:02.387Z,8
2023-05-03T02:47:02.447Z,8
2023-05-03T02:48:02.433Z,8
2023-05-03T02:49:02.298Z,8
2023-05-03T02:50:02.523Z,8
2023-05-03T02:51:02.394Z,8
2023-05-03T02:52:02.485Z,8
2023-05-03T02:53:01.868Z,8
2023-05-03T02:54:01.968Z,8
2023-05-03T02:55:02.478Z,8
2023-05-03T02:56:02.006Z,8
2023-05-03T02:57:02.668Z,8
2023-05-03T02:58:02.526Z,8
2023-05-03T02:59:02.987Z,8
2023-05-03T03:00:02.966Z,8
2023-05-03T03:01:02.646Z,8
2023-05-03T03:02:03.273Z,8
2023-05-03T03:03:02.715Z,8
2023-05-03T03:04:02.686Z,8
2023-05-03T03:05:02.607Z,8
2023-05-03T03:06:02.908Z,8
2023-05-03T03:07:02.989Z,8
2023-05-03T03:08:03.240Z,8
2023-05-03T03:09:03.093Z,8
2023-05-03T03:10:03.046Z,8
2023-05-03T03:11:02.984Z,7
2023-05-03T03:12:02.810Z,8
2023-05-03T03:13:03.020Z,7
2023-05-03T03:14:02.829Z,8
2023-05-03T03:15:03.134Z,7
2023-05-03T03:16:03.090Z,8
2023-05-03T03:17:02.166Z,7
2023-05-03T03:18:02.653Z,8
2023-05-03T03:19:02.645Z,8
2023-05-03T03:20:02.953Z,7
2023-05-03T03:21:02.726Z,8
2023-05-03T03:22:02.233Z,7
2023-05-03T03:23:02.731Z,8
2023-05-03T03:24:02.526Z,8
2023-05-03T03:25:02.333Z,8
2023-05-03T03:26:02.884Z,8
2023-05-03T03:27:02.553Z,8
2023-05-03T03:28:02.926Z,7
2023-05-03T03:29:02.678Z,7
2023-05-03T03:30:03.253Z,7
2023-05-03T03:31:03.144Z,8
2023-05-03T03:32:02.699Z,7
2023-05-03T03:33:02.847Z,7
2023-05-03T03:34:03.154Z,7
2023-05-03T03:35:03.318Z,7
2023-05-03T03:36:02.751Z,7
2023-05-03T03:37:02.766Z,7
2023-05-03T03:38:03.197Z,7
2023-05-03T03:39:03.109Z,7
2023-05-03T03:40:02.970Z,7
2023-05-03T03:41:02.995Z,7
2023-05-03T03:42:02.280Z,7
2023-05-03T03:43:02.658Z,8
2023-05-03T03:44:02.438Z,7
2023-05-03T03:45:02.429Z,7
2023-05-03T03:46:02.668Z,7
2023-05-03T03:47:02.580Z,7
2023-05-03T03:48:03.123Z,7
2023-05-03T03:49:02.498Z,7
2023-05-03T03:50:03.128Z,7
2023-05-03T03:51:02.877Z,7
2023-05-03T03:52:03.266Z,7
2023-05-03T03:53:02.787Z,7
2023-05-03T03:54:03.276Z,7
2023-05-03T03:55:03.011Z,7
2023-05-03T03:56:02.873Z,7
2023-05-03T03:57:02.388Z,7
2023-05-03T03:58:02.520Z,7
2023-05-03T03:59:02.476Z,7
2023-05-03T04:00:02.796Z,7
2023-05-03T04:01:02.131Z,7
2023-05-03T04:02:02.703Z,7
2023-05-03T04:03:04.114Z,8
2023-05-03T04:04:03.333Z,8
2023-05-03T04:05:02.748Z,8
2023-05-03T04:06:02.797Z,8
2023-05-03T04:07:02.746Z,9
2023-05-03T04:08:02.749Z,9
2023-05-03T04:09:02.554Z,9
2023-05-03T04:10:03.139Z,9
2023-05-03T04:11:02.702Z,9
2023-05-03T04:12:02.476Z,9
2023-05-03T04:13:02.314Z,9
2023-05-03T04:14:02.855Z,9
2023-05-03T04:15:02.759Z,9
2023-05-03T04:16:04.563Z,9
2023-05-03T04:17:02.561Z,9
2023-05-03T04:18:02.891Z,9
2023-05-03T04:19:02.409Z,9
2023-05-03T04:20:02.543Z,9
2023-05-03T04:21:02.308Z,8
2023-05-03T04:22:03.072Z,9
2023-05-03T04:23:02.573Z,8
2023-05-03T04:24:02.766Z,8
2023-05-03T04:25:02.707Z,8
2023-05-03T04:26:04.692Z,8
2023-05-03T04:27:03.126Z,8
2023-05-03T04:28:03.289Z,8
2023-05-03T04:29:03.035Z,9
2023-05-03T04:30:03.568Z,8
2023-05-03T04:31:03.566Z,8
2023-05-03T04:32:02.299Z,8
2023-05-03T04:33:02.153Z,8
2023-05-03T04:34:02.328Z,8
2023-05-03T04:35:02.601Z,8
2023-05-03T04:36:02.512Z,8
2023-05-03T04:37:02.378Z,8
2023-05-03T04:38:02.321Z,8
2023-05-03T04:39:02.331Z,8
2023-05-03T04:40:02.791Z,8
2023-05-03T04:41:02.098Z,8
2023-05-03T04:42:02.969Z,8
2023-05-03T04:43:03.048Z,8
2023-05-03T04:44:03.129Z,8
2023-05-03T04:45:03.119Z,8
2023-05-03T04:46:02.928Z,8
2023-05-03T04:47:02.792Z,8
2023-05-03T04:48:03.198Z,8
2023-05-03T04:49:02.846Z,8
2023-05-03T04:50:03.014Z,8
2023-05-03T04:51:02.917Z,8
2023-05-03T04:52:02.772Z,8
2023-05-03T04:53:02.549Z,8
2023-05-03T04:54:02.516Z,8
2023-05-03T04:55:02.714Z,8
2023-05-03T04:56:02.303Z,8
2023-05-03T04:57:03.276Z,8
2023-05-03T04:58:02.947Z,8
2023-05-03T04:59:03.191Z,8
2023-05-03T05:00:03.120Z,8
2023-05-03T05:01:03.078Z,8
2023-05-03T05:02:02.779Z,8
2023-05-03T05:03:02.936Z,8
2023-05-03T05:04:02.521Z,8
2023-05-03T05:05:02.381Z,8
2023-05-03T05:06:02.756Z,8
2023-05-03T05:07:02.519Z,8
2023-05-03T05:08:02.637Z,8
2023-05-03T05:09:02.782Z,8
2023-05-03T05:10:02.964Z,8
2023-05-03T05:11:02.667Z,8
2023-05-03T05:12:02.161Z,8
2023-05-03T05:13:02.290Z,8
2023-05-03T05:14:02.191Z,8
2023-05-03T05:15:02.183Z,8
2023-05-03T05:16:02.332Z,8
2023-05-03T05:17:02.766Z,8
2023-05-03T05:18:02.797Z,8
2023-05-03T05:19:02.569Z,8
2023-05-03T05:20:02.789Z,8
2023-05-03T05:21:02.603Z,8
2023-05-03T05:22:02.139Z,8
2023-05-03T05:23:02.009Z,8
2023-05-03T05:24:01.922Z,8
2023-05-03T05:25:01.798Z,8
2023-05-03T05:26:01.676Z,8
2023-05-03T05:27:02.403Z,8
2023-05-03T05:28:02.213Z,8
2023-05-03T05:29:01.885Z,8
2023-05-03T05:30:02.225Z,8
2023-05-03T05:31:02.026Z,8
2023-05-03T05:32:02.529Z,8
2023-05-03T05:33:02.542Z,8
2023-05-03T05:34:02.716Z,8
2023-05-03T05:35:02.500Z,8
2023-05-03T05:36:02.121Z,8
2023-05-03T05:37:01.697Z,8
2023-05-03T05:38:01.551Z,8
2023-05-03T05:39:01.885Z,8
2023-05-03T05:40:01.742Z,8
2023-05-03T05:41:01.575Z,8
2023-05-03T05:42:02.413Z,8
2023-05-03T05:43:02.161Z,8
2023-05-03T05:44:02.279Z,8
2023-05-03T05:45:01.838Z,8
2023-05-03T05:46:01.874Z,8
2023-05-03T05:47:02.818Z,8
2023-05-03T05:48:02.756Z,8
2023-05-03T05:49:02.616Z,8
2023-05-03T05:50:04.526Z,8
2023-05-03T05:51:02.482Z,8
2023-05-03T05:52:02.092Z,8
2023-05-03T05:53:01.788Z,8
2023-05-03T05:54:01.980Z,8
2023-05-03T05:55:02.246Z,8
2023-05-03T05:56:02.336Z,8
2023-05-03T05:57:02.380Z,8
2023-05-03T05:58:02.548Z,8
2023-05-03T05:59:02.351Z,8
2023-05-03T06:00:02.631Z,8
2023-05-03T06:01:02.237Z,8
2023-05-03T06:02:02.683Z,8
2023-05-03T06:03:02.481Z,8
2023-05-03T06:04:02.309Z,8
2023-05-03T06:05:02.421Z,8
2023-05-03T06:06:02.636Z,8
2023-05-03T06:07:02.466Z,8
2023-05-03T06:08:02.397Z,8
2023-05-03T06:09:09.813Z,8
2023-05-03T06:10:02.435Z,8
2023-05-03T06:11:02.266Z,8
2023-05-03T06:12:02.526Z,8
2023-05-03T06:13:02.587Z,8
2023-05-03T06:14:02.392Z,8
2023-05-03T06:15:03.290Z,8
2023-05-03T06:16:02.306Z,8
2023-05-03T06:17:02.453Z,8
2023-05-03T06:18:02.877Z,8
2023-05-03T06:19:02.227Z,8
2023-05-03T06:20:02.720Z,8
2023-05-03T06:21:02.288Z,8
2023-05-03T06:22:02.479Z,8
2023-05-03T06:23:02.917Z,8
2023-05-03T06:24:03.031Z,8
2023-05-03T06:25:02.531Z,8
2023-05-03T06:26:02.522Z,8
2023-05-03T06:27:01.915Z,8
2023-05-03T06:28:02.036Z,8
2023-05-03T06:29:02.182Z,8
2023-05-03T06:30:02.252Z,8
2023-05-03T06:31:02.014Z,8
2023-05-03T06:32:01.676Z,8
2023-05-03T06:33:01.636Z,8
2023-05-03T06:34:01.684Z,8
2023-05-03T06:35:01.586Z,8
2023-05-03T06:36:02.000Z,8
2023-05-03T06:37:02.047Z,8
2023-05-03T06:38:02.256Z,8
2023-05-03T06:39:01.905Z,8
2023-05-03T06:40:02.306Z,8
2023-05-03T06:41:02.215Z,8
2023-05-03T06:42:02.160Z,8
2023-05-03T06:43:02.090Z,8
2023-05-03T06:44:02.143Z,8
2023-05-03T06:45:02.113Z,8
2023-05-03T06:46:02.444Z,8
2023-05-03T06:47:02.542Z,8
2023-05-03T06:48:03.075Z,8
2023-05-03T06:49:02.965Z,8
2023-05-03T06:50:02.801Z,8
2023-05-03T06:51:02.555Z,8
2023-05-03T06:52:01.736Z,8
2023-05-03T06:53:02.132Z,8
2023-05-03T06:54:01.851Z,8
2023-05-03T06:55:01.744Z,8
2023-05-03T06:56:01.688Z,8
2023-05-03T06:57:01.872Z,8
2023-05-03T06:58:02.116Z,8
2023-05-03T06:59:02.281Z,8
2023-05-03T07:00:02.071Z,8
2023-05-03T07:01:01.985Z,8
2023-05-03T07:02:02.076Z,8
2023-05-03T07:03:02.273Z,8
2023-05-03T07:04:02.528Z,8
2023-05-03T07:05:01.959Z,8
2023-05-03T07:06:02.067Z,8
2023-05-03T07:07:02.553Z,8
2023-05-03T07:08:02.345Z,8
2023-05-03T07:09:02.723Z,8
2023-05-03T07:10:02.353Z,8
2023-05-03T07:11:02.208Z,8
2023-05-03T07:12:02.040Z,8
2023-05-03T07:13:01.972Z,8
2023-05-03T07:14:02.015Z,8
2023-05-03T07:15:01.858Z,8
2023-05-03T07:16:03.678Z,8
2023-05-03T07:17:02.471Z,8
2023-05-03T07:18:02.353Z,8
2023-05-03T07:19:02.499Z,8
2023-05-03T07:20:02.302Z,8
2023-05-03T07:21:02.360Z,8
2023-05-03T07:22:01.827Z,8
2023-05-03T07:23:01.998Z,8
2023-05-03T07:24:01.898Z,8
2023-05-03T07:25:01.919Z,8
2023-05-03T07:26:01.876Z,8
2023-05-03T07:27:02.461Z,8
2023-05-03T07:28:02.823Z,8
2023-05-03T07:29:02.262Z,8
2023-05-03T07:30:02.494Z,8
2023-05-03T07:31:02.398Z,8
2023-05-03T07:32:01.755Z,8
2023-05-03T07:33:02.005Z,8
2023-05-03T07:34:02.133Z,8
2023-05-03T07:35:02.041Z,8
2023-05-03T07:36:02.044Z,8
2023-05-03T07:37:02.367Z,8
2023-05-03T07:38:02.151Z,8
2023-05-03T07:39:02.150Z,8
2023-05-03T07:40:02.493Z,8
2023-05-03T07:41:02.073Z,8
2023-05-03T07:42:02.754Z,8
2023-05-03T07:43:02.901Z,8
2023-05-03T07:44:02.912Z,8
2023-05-03T07:45:02.470Z,8
2023-05-03T07:46:02.565Z,8
2023-05-03T07:47:01.880Z,8
2023-05-03T07:48:02.017Z,8
2023-05-03T07:49:01.856Z,9
2023-05-03T07:50:02.316Z,9
2023-05-03T07:51:01.529Z,9
2023-05-03T07:52:02.473Z,9
2023-05-03T07:53:02.621Z,9
2023-05-03T07:54:02.409Z,9
2023-05-03T07:55:02.634Z,9
2023-05-03T07:56:02.584Z,9
2023-05-03T07:57:02.486Z,9
2023-05-03T07:58:02.307Z,9
2023-05-03T08:00:02.870Z,9
2023-05-03T08:01:02.545Z,9
2023-05-03T08:02:03.221Z,9
2023-05-03T08:03:03.265Z,9
2023-05-03T08:04:03.021Z,9
2023-05-03T08:05:03.256Z,9
2023-05-03T08:06:03.122Z,9
2023-05-03T08:07:03.598Z,9
2023-05-03T08:08:03.522Z,9
2023-05-03T08:09:03.256Z,9
2023-05-03T08:10:03.503Z,9
2023-05-03T08:11:03.399Z,9
2023-05-03T08:12:03.718Z,9
2023-05-03T08:13:03.401Z,9
2023-05-03T08:14:03.469Z,9
2023-05-03T08:15:03.454Z,9
2023-05-03T08:16:03.549Z,9
2023-05-03T08:17:02.871Z,9
2023-05-03T08:18:02.831Z,9
2023-05-03T08:19:02.937Z,9
2023-05-03T08:20:03.219Z,9
2023-05-03T08:21:02.414Z,9
2023-05-03T08:22:03.239Z,9
2023-05-03T08:23:03.212Z,9
2023-05-03T08:24:02.964Z,9
2023-05-03T08:25:03.331Z,9
2023-05-03T08:26:02.877Z,9
2023-05-03T08:27:03.790Z,9
2023-05-03T08:28:03.250Z,9
2023-05-03T08:29:03.421Z,9
2023-05-03T08:30:04.181Z,9
2023-05-03T08:31:03.497Z,9
2023-05-03T08:32:03.169Z,9
2023-05-03T08:33:03.270Z,9
2023-05-03T08:34:03.076Z,9
2023-05-03T08:35:02.877Z,9
2023-05-03T08:36:02.928Z,9
2023-05-03T08:37:03.423Z,9
2023-05-03T08:38:02.939Z,9
2023-05-03T08:39:02.972Z,9
2023-05-03T08:40:03.340Z,9
2023-05-03T08:41:02.883Z,9
2023-05-03T08:42:03.082Z,9
2023-05-03T08:43:02.814Z,9
2023-05-03T08:44:03.115Z,9
2023-05-03T08:45:02.554Z,9
2023-05-03T08:46:02.711Z,9
2023-05-03T08:47:03.128Z,9
2023-05-03T08:48:03.753Z,9
2023-05-03T08:49:03.446Z,9
2023-05-03T08:50:03.700Z,9
2023-05-03T08:51:03.663Z,9
2023-05-03T08:52:02.626Z,9
2023-05-03T08:53:02.693Z,9
2023-05-03T08:54:02.632Z,9
2023-05-03T08:55:02.609Z,10
2023-05-03T08:56:02.684Z,10
2023-05-03T08:57:03.423Z,10
2023-05-03T08:58:03.014Z,10
2023-05-03T08:59:02.807Z,10
2023-05-03T09:00:03.462Z,10
2023-05-03T09:01:03.359Z,10
2023-05-03T09:02:03.013Z,10
2023-05-03T09:03:02.487Z,10
2023-05-03T09:04:02.985Z,10
2023-05-03T09:05:03.106Z,10
2023-05-03T09:06:02.566Z,10
2023-05-03T09:07:02.064Z,10
2023-05-03T09:08:02.244Z,10
2023-05-03T09:09:02.246Z,10
2023-05-03T09:10:02.487Z,10
2023-05-03T09:11:02.135Z,10
2023-05-03T09:12:02.192Z,10
2023-05-03T09:13:02.434Z,10
2023-05-03T09:14:02.536Z,10
2023-05-03T09:15:02.105Z,10
2023-05-03T09:16:02.626Z,10
2023-05-03T09:17:01.603Z,10
2023-05-03T09:18:01.834Z,10
2023-05-03T09:19:01.899Z,10
2023-05-03T09:20:02.085Z,10
2023-05-03T09:21:01.728Z,10
2023-05-03T09:22:02.021Z,10
2023-05-03T09:23:02.237Z,10
2023-05-03T09:24:01.853Z,10
2023-05-03T09:25:02.026Z,10
2023-05-03T09:26:02.027Z,10
2023-05-03T09:27:01.809Z,10
2023-05-03T09:28:02.315Z,10
2023-05-03T09:29:02.016Z,10
2023-05-03T09:30:02.318Z,10
2023-05-03T09:31:01.758Z,10
2023-05-03T09:32:02.302Z,10
2023-05-03T09:33:02.513Z,10
2023-05-03T09:34:02.134Z,11
2023-05-03T09:35:02.815Z,11
2023-05-03T09:36:02.121Z,11
2023-05-03T09:37:01.944Z,11
2023-05-03T09:38:01.773Z,11
2023-05-03T09:39:01.931Z,11
2023-05-03T09:40:02.021Z,11
2023-05-03T09:41:02.314Z,11
2023-05-03T09:42:02.112Z,11
2023-05-03T09:43:03.671Z,11
2023-05-03T09:44:02.357Z,11
2023-05-03T09:45:02.800Z,11
2023-05-03T09:46:02.106Z,11
2023-05-03T09:47:02.306Z,11
2023-05-03T09:48:02.236Z,11
2023-05-03T09:49:02.724Z,11
2023-05-03T09:50:02.471Z,11
2023-05-03T09:51:02.609Z,11
2023-05-03T09:52:01.848Z,11
2023-05-03T09:53:01.974Z,11
2023-05-03T09:54:01.662Z,11
2023-05-03T09:55:02.070Z,11
2023-05-03T09:56:02.078Z,11
2023-05-03T09:57:02.505Z,11
2023-05-03T09:58:02.660Z,11
2023-05-03T09:59:02.480Z,11
2023-05-03T10:00:02.454Z,11
2023-05-03T10:01:02.580Z,11
2023-05-03T10:02:03.017Z,11
2023-05-03T10:03:03.061Z,12
2023-05-03T10:04:03.085Z,12
2023-05-03T10:05:03.478Z,12
2023-05-03T10:06:03.081Z,12
2023-05-03T10:07:03.395Z,12
2023-05-03T10:08:03.567Z,12
2023-05-03T10:09:03.803Z,12
2023-05-03T10:10:03.192Z,12
2023-05-03T10:11:03.329Z,12
2023-05-03T10:12:03.038Z,12
2023-05-03T10:13:02.887Z,12
2023-05-03T10:14:02.903Z,12
2023-05-03T10:15:03.229Z,12
2023-05-03T10:16:03.370Z,12
2023-05-03T10:17:03.146Z,12
2023-05-03T10:18:03.165Z,12
2023-05-03T10:19:03.367Z,12
2023-05-03T10:20:03.600Z,12
2023-05-03T10:21:03.119Z,12
2023-05-03T10:22:03.536Z,12
2023-05-03T10:23:03.576Z,12
2023-05-03T10:24:03.467Z,12
2023-05-03T10:25:03.381Z,12
2023-05-03T10:26:03.289Z,12
2023-05-03T10:27:03.303Z,12
2023-05-03T10:28:03.627Z,12
2023-05-03T10:29:03.419Z,12
2023-05-03T10:30:03.683Z,12
2023-05-03T10:31:03.678Z,12
2023-05-03T10:32:02.695Z,12
2023-05-03T10:33:02.887Z,12
2023-05-03T10:34:03.069Z,12
2023-05-03T10:35:03.569Z,13
2023-05-03T10:36:03.102Z,13
2023-05-03T10:37:03.147Z,13
2023-05-03T10:38:03.336Z,13
2023-05-03T10:39:03.579Z,13
2023-05-03T10:40:03.391Z,13
2023-05-03T10:41:03.509Z,13
2023-05-03T10:42:02.811Z,13
2023-05-03T10:43:02.997Z,13
2023-05-03T10:44:02.422Z,13
2023-05-03T10:45:03.046Z,13
2023-05-03T10:46:02.930Z,13
2023-05-03T10:47:03.036Z,13
2023-05-03T10:48:03.196Z,13
2023-05-03T10:49:02.782Z,13
2023-05-03T10:50:03.026Z,13
2023-05-03T10:51:03.232Z,13
2023-05-03T10:52:02.821Z,13
2023-05-03T10:53:03.068Z,13
2023-05-03T10:54:03.378Z,13
2023-05-03T10:55:03.080Z,13
2023-05-03T10:56:03.426Z,13
2023-05-03T10:57:03.551Z,13
2023-05-03T10:58:03.240Z,13
2023-05-03T10:59:03.641Z,13
2023-05-03T11:00:03.621Z,13
2023-05-03T11:01:03.273Z,13
2023-05-03T11:02:02.917Z,13
2023-05-03T11:03:02.531Z,13
2023-05-03T11:04:03.120Z,13
2023-05-03T11:05:02.994Z,13
2023-05-03T11:06:02.651Z,13
2023-05-03T11:07:03.430Z,13
2023-05-03T11:08:03.302Z,13
2023-05-03T11:09:03.620Z,13
2023-05-03T11:10:03.550Z,14
2023-05-03T11:11:03.090Z,14
2023-05-03T11:12:03.218Z,14
2023-05-03T11:13:02.951Z,14
2023-05-03T11:14:03.057Z,14
2023-05-03T11:15:03.013Z,14
2023-05-03T11:16:03.252Z,14
2023-05-03T11:17:03.610Z,14
2023-05-03T11:18:03.706Z,14
2023-05-03T11:19:03.310Z,14
2023-05-03T11:20:03.476Z,14
2023-05-03T11:21:03.449Z,14
2023-05-03T11:22:03.062Z,14
2023-05-03T11:23:03.183Z,14
2023-05-03T11:24:02.973Z,14
2023-05-03T11:25:02.888Z,14
2023-05-03T11:26:02.769Z,14
2023-05-03T11:27:08.343Z,14
2023-05-03T11:28:03.844Z,14
2023-05-03T11:29:03.281Z,14
2023-05-03T11:30:03.041Z,14
2023-05-03T11:31:03.044Z,14
2023-05-03T11:32:03.164Z,14
2023-05-03T11:33:02.516Z,14
2023-05-03T11:34:02.576Z,14
2023-05-03T11:35:02.813Z,14
2023-05-03T11:36:03.032Z,14
2023-05-03T11:37:03.067Z,14
2023-05-03T11:38:02.903Z,14
2023-05-03T11:39:03.149Z,14
2023-05-03T11:40:02.560Z,14
2023-05-03T11:41:02.625Z,14
2023-05-03T11:42:03.125Z,14
2023-05-03T11:43:02.844Z,14
2023-05-03T11:44:15.425Z,14
2023-05-03T11:45:03.791Z,14
2023-05-03T11:46:03.012Z,14
2023-05-03T11:47:04.200Z,15
2023-05-03T11:48:03.851Z,15
2023-05-03T11:49:03.350Z,15
2023-05-03T11:50:03.583Z,15
2023-05-03T11:51:03.676Z,15
2023-05-03T11:52:03.915Z,15
2023-05-03T11:53:03.496Z,15
2023-05-03T11:54:13.041Z,15
2023-05-03T11:55:03.667Z,15
2023-05-03T11:56:03.401Z,15
2023-05-03T11:57:03.434Z,15
2023-05-03T11:58:03.316Z,15
2023-05-03T11:59:03.402Z,15
2023-05-03T12:00:03.209Z,15
2023-05-03T12:01:03.452Z,15
2023-05-03T12:02:02.323Z,15
2023-05-03T12:03:02.830Z,15
2023-05-03T12:04:02.771Z,15
2023-05-03T12:05:03.712Z,15
2023-05-03T12:06:03.363Z,15
2023-05-03T12:07:03.364Z,15
2023-05-03T12:08:02.861Z,15
2023-05-03T12:09:02.856Z,15
2023-05-03T12:11:03.910Z,15
2023-05-03T12:12:03.303Z,15
2023-05-03T12:13:05.141Z,15
2023-05-03T12:14:03.312Z,15
2023-05-03T12:15:04.062Z,15
2023-05-03T12:16:11.791Z,15
2023-05-03T12:17:02.967Z,15
2023-05-03T12:18:04.525Z,15
2023-05-03T12:19:03.610Z,15
2023-05-03T12:21:28.972Z,15
2023-05-03T12:23:04.073Z,15
2023-05-03T12:24:05.251Z,15
2023-05-03T12:25:04.312Z,15
2023-05-03T12:26:05.171Z,15
2023-05-03T12:27:03.358Z,15
2023-05-03T12:28:18.904Z,15
2023-05-03T12:29:02.779Z,15
2023-05-03T12:30:02.464Z,16
2023-05-03T12:31:04.995Z,16
2023-05-03T12:32:02.315Z,16
2023-05-03T12:33:04.858Z,16
2023-05-03T12:34:30.892Z,16
2023-05-03T12:35:03.452Z,16
2023-05-03T12:36:04.399Z,16
2023-05-03T12:37:04.478Z,16
2023-05-03T12:38:03.014Z,16
2023-05-03T12:39:03.034Z,16
2023-05-03T12:40:28.998Z,16
2023-05-03T12:41:02.701Z,16
2023-05-03T12:42:07.206Z,16
2023-05-03T12:43:03.178Z,16
2023-05-03T12:44:03.006Z,16
2023-05-03T12:45:04.728Z,16
2023-05-03T12:46:31.683Z,16
2023-05-03T12:47:03.387Z,16
2023-05-03T12:48:03.359Z,16
2023-05-03T12:49:06.807Z,16
2023-05-03T12:50:06.107Z,16
2023-05-03T12:51:18.597Z,16
2023-05-03T12:52:23.058Z,16
2023-05-03T12:53:03.298Z,16
2023-05-03T12:54:03.427Z,16
2023-05-03T12:55:03.998Z,16
2023-05-03T12:56:06.261Z,16
2023-05-03T12:57:06.096Z,16
2023-05-03T12:59:31.769Z,16
2023-05-03T13:00:04.229Z,16
2023-05-03T13:01:37.965Z,16
2023-05-03T13:03:09.198Z,16
2023-05-03T13:05:09.762Z,16
2023-05-03T13:06:11.745Z,16
2023-05-03T13:07:03.183Z,16
2023-05-03T13:09:03.439Z,16
2023-05-03T13:11:02.505Z,16
2023-05-03T13:12:02.528Z,16
2023-05-03T13:13:03.180Z,16
2023-05-03T13:14:03.122Z,16
2023-05-03T13:15:03.589Z,16
2023-05-03T13:16:03.148Z,16
2023-05-03T13:17:02.784Z,16
2023-05-03T13:18:02.722Z,16
2023-05-03T13:19:02.048Z,16
2023-05-03T13:20:02.753Z,16
2023-05-03T13:21:02.652Z,16
2023-05-03T13:22:02.100Z,16
2023-05-03T13:23:02.715Z,16
2023-05-03T13:24:02.571Z,16
2023-05-03T13:25:03.060Z,16
2023-05-03T13:26:02.574Z,16
2023-05-03T13:27:02.959Z,17
2023-05-03T13:28:03.572Z,17
2023-05-03T13:29:03.358Z,17
2023-05-03T13:30:03.532Z,17
2023-05-03T13:31:03.241Z,17
2023-05-03T13:32:03.509Z,16
2023-05-03T13:33:03.132Z,17
2023-05-03T13:34:02.578Z,17
2023-05-03T13:35:02.864Z,17
2023-05-03T13:36:02.723Z,17
2023-05-03T13:37:02.873Z,17
2023-05-03T13:38:03.123Z,17
2023-05-03T13:39:03.176Z,17
2023-05-03T13:40:03.738Z,17
2023-05-03T13:41:03.140Z,17
2023-05-03T13:42:03.034Z,17
2023-05-03T13:43:02.720Z,17
2023-05-03T13:44:02.217Z,17
2023-05-03T13:45:02.385Z,17
2023-05-03T13:46:02.655Z,17
2023-05-03T13:47:02.576Z,17
2023-05-03T13:48:17.599Z,17
2023-05-03T13:49:02.990Z,17
2023-05-03T13:50:03.454Z,17
2023-05-03T13:51:03.178Z,17
2023-05-03T13:52:03.019Z,17
2023-05-03T13:53:03.552Z,17
2023-05-03T13:54:03.159Z,17
2023-05-03T13:55:03.473Z,17
2023-05-03T13:56:03.110Z,17
2023-05-03T13:57:03.283Z,17
2023-05-03T13:58:02.421Z,17
2023-05-03T13:59:02.930Z,17
2023-05-03T14:00:02.850Z,17
2023-05-03T14:01:02.733Z,17
2023-05-03T14:02:02.937Z,17
2023-05-03T14:03:03.071Z,17
2023-05-03T14:04:03.254Z,17
2023-05-03T14:05:02.862Z,17
2023-05-03T14:06:03.344Z,17
2023-05-03T14:07:03.528Z,17
2023-05-03T14:08:02.595Z,17
2023-05-03T14:09:03.131Z,17
2023-05-03T14:10:03.257Z,17
2023-05-03T14:11:04.672Z,17
2023-05-03T14:12:02.503Z,17
2023-05-03T14:13:02.967Z,17
2023-05-03T14:14:02.573Z,17
2023-05-03T14:15:02.764Z,17
2023-05-03T14:16:03.033Z,17
2023-05-03T14:17:02.607Z,17
2023-05-03T14:18:04.847Z,17
2023-05-03T14:19:03.066Z,17
2023-05-03T14:20:02.865Z,17
2023-05-03T14:21:03.286Z,17
2023-05-03T14:22:03.223Z,17
2023-05-03T14:23:03.262Z,17
2023-05-03T14:24:03.024Z,17
2023-05-03T14:25:03.451Z,17
2023-05-03T14:26:03.084Z,17
2023-05-03T14:27:03.511Z,17
2023-05-03T14:28:02.729Z,17
2023-05-03T14:29:03.129Z,17
2023-05-03T14:30:02.852Z,17
2023-05-03T14:31:02.619Z,17
2023-05-03T14:32:03.062Z,17
2023-05-03T14:33:03.388Z,17
2023-05-03T14:34:03.563Z,17
2023-05-03T14:35:03.114Z,17
2023-05-03T14:36:03.241Z,17
2023-05-03T14:37:03.227Z,17
2023-05-03T14:38:03.352Z,17
2023-05-03T14:39:03.460Z,17
2023-05-03T14:40:03.815Z,17
2023-05-03T14:41:03.806Z,17
2023-05-03T14:42:03.330Z,17
2023-05-03T14:43:02.885Z,17